createdAt,value
2019-06-01T00:00:12.224Z,30.00
2019-06-01T00:02:44.147Z,29.50
2019-06-01T00:05:12.135Z,30.50
2019-06-01T00:07:41.320Z,26.50
2019-06-01T00:10:10.616Z,28.75
2019-06-01T00:12:39.818Z,28.50
2019-06-01T00:15:09.132Z,31.75
2019-06-01T00:17:39.389Z,30.00
2019-06-01T00:20:09.199Z,31.75
2019-06-01T00:22:38.328Z,25.50
2019-06-01T00:25:07.941Z,26.75
2019-06-01T00:27:37.133Z,31.75
2019-06-01T00:30:07.501Z,24.50
2019-06-01T00:32:36.719Z,26.00
2019-06-01T00:35:06.885Z,26.25
2019-06-01T00:37:35.915Z,26.75
2019-06-01T00:40:05.521Z,29.25
2019-06-01T00:42:34.635Z,30.25
2019-06-01T00:45:04.146Z,32.50
2019-06-01T00:47:33.188Z,29.75
2019-06-01T00:50:02.401Z,30.25
2019-06-01T00:52:31.532Z,26.50
2019-06-01T00:55:00.719Z,25.00
2019-06-01T00:57:29.823Z,28.00
2019-06-01T00:59:58.879Z,28.50
2019-06-01T01:02:28.085Z,25.50
2019-06-01T01:05:14.696Z,26.00
2019-06-01T01:07:44.502Z,27.00
2019-06-01T01:10:15.301Z,24.00
2019-06-01T01:13:02.324Z,24.50
2019-06-01T01:15:31.549Z,26.50
2019-06-01T01:18:00.732Z,28.75
2019-06-01T01:20:29.919Z,27.50
2019-06-01T01:22:59.139Z,25.50
2019-06-01T01:25:28.344Z,25.50
2019-06-01T01:27:57.461Z,25.50
2019-06-01T01:30:26.866Z,23.50
2019-06-01T01:32:56.071Z,21.75
2019-06-01T01:35:25.256Z,23.25
2019-06-01T01:37:58.178Z,28.00
2019-06-01T01:40:27.531Z,27.00
2019-06-01T01:42:56.714Z,23.75
2019-06-01T01:45:25.896Z,25.25
2019-06-01T01:47:55.186Z,22.75
2019-06-01T01:50:26.765Z,28.75
2019-06-01T01:52:57.032Z,27.00
2019-06-01T01:55:26.558Z,25.25
2019-06-01T01:57:55.791Z,25.00
2019-06-01T02:00:37.669Z,24.50
2019-06-01T02:03:07.428Z,27.50
2019-06-01T02:05:36.624Z,23.25
2019-06-01T02:08:06.676Z,27.75
2019-06-01T02:10:35.987Z,26.00
2019-06-01T02:13:05.633Z,25.50
2019-06-01T02:15:35.313Z,24.50
2019-06-01T02:18:04.860Z,26.50
2019-06-01T02:20:34.416Z,22.25
2019-06-01T02:23:03.614Z,24.25
2019-06-01T02:25:32.816Z,21.00
2019-06-01T02:28:03.291Z,22.75
2019-06-01T02:30:32.583Z,21.75
2019-06-01T02:33:02.375Z,23.75
2019-06-01T02:35:32.172Z,24.25
2019-06-01T02:38:03.114Z,26.50
2019-06-01T02:40:32.233Z,21.75
2019-06-01T02:43:02.110Z,22.00
2019-06-01T02:45:32.275Z,21.25
2019-06-01T02:48:01.892Z,21.00
2019-06-01T02:50:32.293Z,23.75
2019-06-01T02:53:01.610Z,25.25
2019-06-01T02:55:30.770Z,22.00
2019-06-01T02:58:00.237Z,23.00
2019-06-01T03:00:57.134Z,23.50
2019-06-01T03:03:27.632Z,20.50
2019-06-01T03:05:57.605Z,24.75
2019-06-01T03:08:28.493Z,21.50
2019-06-01T03:10:59.769Z,21.00
2019-06-01T03:13:31.173Z,19.00
2019-06-01T03:16:03.708Z,22.25
2019-06-01T03:18:35.355Z,21.00
2019-06-01T03:21:06.255Z,24.50
2019-06-01T03:23:36.336Z,18.50
2019-06-01T03:26:08.735Z,19.50
2019-06-01T03:28:41.613Z,24.75
2019-06-01T03:31:10.875Z,23.25
2019-06-01T03:33:40.088Z,21.00
2019-06-01T03:36:09.277Z,19.00
2019-06-01T03:38:38.566Z,26.00
2019-06-01T03:41:08.218Z,22.00
2019-06-01T03:43:37.382Z,23.00
2019-06-01T03:46:06.714Z,21.50
2019-06-01T03:48:35.869Z,19.00
2019-06-01T03:51:05.673Z,18.25
2019-06-01T03:53:34.768Z,23.75
2019-06-01T03:56:04.934Z,22.00
2019-06-01T03:58:34.145Z,21.00
2019-06-01T04:01:03.344Z,20.50
2019-06-01T04:03:32.520Z,17.75
2019-06-01T04:06:01.625Z,18.75
2019-06-01T04:08:30.677Z,22.00
2019-06-01T04:10:59.781Z,19.75
2019-06-01T04:13:28.914Z,22.00
2019-06-01T04:15:58.046Z,21.50
2019-06-01T04:18:27.160Z,21.50
2019-06-01T04:20:56.328Z,21.50
2019-06-01T04:23:25.546Z,21.00
2019-06-01T04:25:54.758Z,20.25
2019-06-01T04:28:23.940Z,18.50
2019-06-01T04:30:53.079Z,21.75
2019-06-01T04:33:22.146Z,21.00
2019-06-01T04:35:51.269Z,22.25
2019-06-01T04:38:20.448Z,25.50
2019-06-01T04:40:49.584Z,21.75
2019-06-01T04:43:18.749Z,23.00
2019-06-01T04:45:47.971Z,24.00
2019-06-01T04:48:17.148Z,22.75
2019-06-01T04:50:46.210Z,25.50
2019-06-01T04:53:15.391Z,25.50
2019-06-01T04:55:44.571Z,24.00
2019-06-01T04:58:14.848Z,21.75
2019-06-01T05:00:44.080Z,22.00
2019-06-01T05:03:13.567Z,26.75
2019-06-01T05:08:17.834Z,24.50
2019-06-01T05:10:46.955Z,22.00
2019-06-01T05:13:16.086Z,23.00
2019-06-01T05:15:45.283Z,24.00
2019-06-01T05:18:16.202Z,21.00
2019-06-01T05:20:45.234Z,26.00
2019-06-01T05:23:14.854Z,24.00
2019-06-01T05:25:44.031Z,23.00
2019-06-01T05:28:13.312Z,25.75
2019-06-01T05:30:42.553Z,23.00
2019-06-01T05:33:28.037Z,23.00
2019-06-01T05:35:42.673Z,23.75
2019-06-01T05:38:12.205Z,25.00
2019-06-01T05:40:41.467Z,24.75
2019-06-01T05:43:14.229Z,24.25
2019-06-01T05:45:41.599Z,27.00
2019-06-01T05:48:12.940Z,26.75
2019-06-01T05:50:41.584Z,26.50
2019-06-01T05:53:10.789Z,26.50
2019-06-01T05:55:39.900Z,26.00
2019-06-01T05:58:09.111Z,23.75
2019-06-01T06:00:40.890Z,25.00
2019-06-01T06:03:14.494Z,24.50
2019-06-01T06:05:41.033Z,21.25
2019-06-01T06:08:10.212Z,25.50
2019-06-01T06:10:39.399Z,24.25
2019-06-01T06:13:08.513Z,24.75
2019-06-01T06:15:37.629Z,26.25
2019-06-01T06:18:06.823Z,24.50
2019-06-01T06:20:36.024Z,26.50
2019-06-01T06:23:05.211Z,25.50
2019-06-01T06:25:36.658Z,28.25
2019-06-01T06:28:05.348Z,24.25
2019-06-01T06:30:34.530Z,26.00
2019-06-01T06:33:03.739Z,24.00
2019-06-01T06:35:32.849Z,22.75
2019-06-01T06:38:01.877Z,24.25
2019-06-01T06:40:31.023Z,27.50
2019-06-01T06:43:00.145Z,26.00
2019-06-01T06:45:29.318Z,23.50
2019-06-01T06:47:58.445Z,24.00
2019-06-01T06:50:27.570Z,23.25
2019-06-01T06:52:56.753Z,25.00
2019-06-01T06:55:26.195Z,22.25
2019-06-01T06:57:55.453Z,24.50
2019-06-01T07:00:24.982Z,21.25
2019-06-01T07:02:54.130Z,21.75
2019-06-01T07:05:23.547Z,20.50
2019-06-01T07:07:52.750Z,20.50
2019-06-01T07:10:22.190Z,20.25
2019-06-01T07:12:51.407Z,19.25
2019-06-01T07:15:21.400Z,20.25
2019-06-01T07:17:50.627Z,19.75
2019-06-01T07:20:19.823Z,20.75
2019-06-01T07:22:48.912Z,16.50
2019-06-01T07:25:18.105Z,17.00
2019-06-01T07:27:47.316Z,14.75
2019-06-01T07:30:16.500Z,16.00
2019-06-01T07:32:45.703Z,13.25
2019-06-01T07:35:14.803Z,9.50
2019-06-01T07:37:43.963Z,10.25
2019-06-01T07:40:14.165Z,13.50
2019-06-01T07:42:43.551Z,15.00
2019-06-01T07:45:12.737Z,15.50
2019-06-01T07:47:41.935Z,13.50
2019-06-01T07:50:11.226Z,11.50
2019-06-01T07:52:40.444Z,10.25
2019-06-01T07:55:09.746Z,11.50
2019-06-01T07:57:42.667Z,12.00
2019-06-01T08:00:10.054Z,8.50
2019-06-01T08:02:39.226Z,10.50
2019-06-01T08:05:08.855Z,10.50
2019-06-01T08:07:38.033Z,9.75
2019-06-01T08:10:07.342Z,11.00
2019-06-01T08:12:36.553Z,11.75
2019-06-01T08:15:06.375Z,13.50
2019-06-01T08:17:35.568Z,11.75
2019-06-01T08:20:05.226Z,12.00
2019-06-01T08:22:34.428Z,14.50
2019-06-01T08:25:03.644Z,14.25
2019-06-01T08:27:32.846Z,14.25
2019-06-01T08:30:02.566Z,12.50
2019-06-01T08:32:32.891Z,13.00
2019-06-01T08:35:08.728Z,12.75
2019-06-01T08:37:33.562Z,13.50
2019-06-01T08:40:02.853Z,14.75
2019-06-01T08:42:32.071Z,14.75
2019-06-01T08:45:01.159Z,13.50
2019-06-01T08:47:30.276Z,12.75
2019-06-01T08:49:59.492Z,12.75
2019-06-01T08:52:30.264Z,10.00
2019-06-01T08:54:59.470Z,12.25
2019-06-01T08:57:28.674Z,13.00
2019-06-01T08:59:57.864Z,11.75
2019-06-01T09:02:27.035Z,13.00
2019-06-01T09:04:56.110Z,13.50
2019-06-01T09:07:25.171Z,10.75
2019-06-01T09:09:54.853Z,14.00
2019-06-01T09:12:25.095Z,15.50
2019-06-01T09:14:54.361Z,13.00
2019-06-01T09:17:23.581Z,12.25
2019-06-01T09:19:52.680Z,14.00
2019-06-01T09:22:21.720Z,15.00
2019-06-01T09:24:53.509Z,10.00
2019-06-01T09:27:21.678Z,14.50
2019-06-01T09:29:50.883Z,10.25
2019-06-01T09:32:20.073Z,13.00
2019-06-01T09:34:49.297Z,13.00
2019-06-01T09:37:18.487Z,10.00
2019-06-01T09:39:47.686Z,10.50
2019-06-01T09:42:16.883Z,9.75
2019-06-01T09:44:46.057Z,10.75
2019-06-01T09:47:15.273Z,8.00
2019-06-01T09:49:44.416Z,9.25
2019-06-01T09:52:13.549Z,9.00
2019-06-01T09:54:42.733Z,7.50
2019-06-01T09:57:11.834Z,6.00
2019-06-01T09:59:41.027Z,9.00
2019-06-01T10:02:11.410Z,6.00
2019-06-01T10:04:41.085Z,6.25
2019-06-01T10:07:10.294Z,6.25
2019-06-01T10:09:39.476Z,6.00
2019-06-01T10:12:08.661Z,5.00
2019-06-01T10:14:39.289Z,3.00
2019-06-01T10:17:08.511Z,5.75
2019-06-01T10:19:38.813Z,6.00
2019-06-01T10:22:08.151Z,6.00
2019-06-01T10:24:37.328Z,5.25
2019-06-01T10:27:06.446Z,5.00
2019-06-01T10:29:36.743Z,4.75
2019-06-01T10:32:06.074Z,6.50
2019-06-01T10:34:35.629Z,6.50
2019-06-01T10:37:04.871Z,5.50
2019-06-01T10:39:35.174Z,6.25
2019-06-01T10:42:04.616Z,6.25
2019-06-01T10:44:37.912Z,6.00
2019-06-01T10:47:04.683Z,3.00
2019-06-01T10:49:33.920Z,4.75
2019-06-01T10:52:03.105Z,3.75
2019-06-01T10:54:32.859Z,6.00
2019-06-01T10:57:02.299Z,6.25
2019-06-01T10:59:32.209Z,6.00
2019-06-01T11:02:01.491Z,6.00
2019-06-01T11:04:30.611Z,6.50
2019-06-01T11:06:59.731Z,4.00
2019-06-01T11:09:28.912Z,5.50
2019-06-01T11:11:58.093Z,6.00
2019-06-01T11:14:27.240Z,7.75
2019-06-01T11:16:56.954Z,6.00
2019-06-01T11:19:26.245Z,4.50
2019-06-01T11:21:55.428Z,5.50
2019-06-01T11:24:24.644Z,8.00
2019-06-01T11:26:53.844Z,7.00
2019-06-01T11:29:22.964Z,7.00
2019-06-01T11:31:52.164Z,7.00
2019-06-01T11:34:21.278Z,9.00
2019-06-01T11:37:04.315Z,9.50
2019-06-01T11:39:21.311Z,8.00
2019-06-01T11:41:50.347Z,7.50
2019-06-01T11:44:19.443Z,7.25
2019-06-01T11:46:48.567Z,7.00
2019-06-01T11:49:20.581Z,6.25
2019-06-01T11:51:48.502Z,6.25
2019-06-01T11:54:17.699Z,7.50
2019-06-01T11:56:46.751Z,9.00
2019-06-01T11:59:15.845Z,5.00
2019-06-01T12:01:45.984Z,7.25
2019-06-01T12:04:15.436Z,9.00
2019-06-01T12:06:44.544Z,8.00
2019-06-01T12:09:13.727Z,8.25
2019-06-01T12:11:44.138Z,8.75
2019-06-01T12:14:13.318Z,5.00
2019-06-01T12:16:42.647Z,7.25
2019-06-01T12:19:11.693Z,7.25
2019-06-01T12:21:40.975Z,5.00
2019-06-01T12:24:10.127Z,5.75
2019-06-01T12:26:39.341Z,7.00
2019-06-01T12:29:08.419Z,8.00
2019-06-01T12:31:37.710Z,5.50
2019-06-01T12:34:06.955Z,5.00
2019-06-01T12:36:36.088Z,8.00
2019-06-01T12:39:08.142Z,8.00
2019-06-01T12:41:37.248Z,8.50
2019-06-01T12:44:12.491Z,9.00
2019-06-01T12:46:41.890Z,7.00
2019-06-01T12:49:11.078Z,7.50
2019-06-01T12:51:40.641Z,6.75
2019-06-01T12:54:10.042Z,9.25
2019-06-01T12:56:40.591Z,7.00
2019-06-01T12:59:09.976Z,7.00
2019-06-01T13:01:39.150Z,6.50
2019-06-01T13:04:08.269Z,9.00
2019-06-01T13:06:37.445Z,9.00
2019-06-01T13:09:08.400Z,10.00
2019-06-01T13:11:37.653Z,9.00
2019-06-01T13:14:06.840Z,9.50
2019-06-01T13:16:36.053Z,10.75
2019-06-01T13:19:05.421Z,8.25
2019-06-01T13:21:34.609Z,12.00
2019-06-01T13:24:03.821Z,12.50
2019-06-01T13:26:33.038Z,9.00
2019-06-01T13:29:02.158Z,10.00
2019-06-01T13:31:31.334Z,8.50
2019-06-01T13:34:00.440Z,10.75
2019-06-01T13:36:29.709Z,8.50
2019-06-01T13:38:58.853Z,8.50
2019-06-01T13:41:28.042Z,9.75
2019-06-01T13:43:57.159Z,9.50
2019-06-01T13:46:26.719Z,11.50
2019-06-01T13:48:55.911Z,10.00
2019-06-01T13:51:25.027Z,9.00
2019-06-01T13:53:54.652Z,9.25
2019-06-01T13:56:23.952Z,11.00
2019-06-01T13:58:53.129Z,11.50
2019-06-01T14:01:22.235Z,10.75
2019-06-01T14:03:52.182Z,10.00
2019-06-01T14:06:22.218Z,10.00
2019-06-01T14:08:51.319Z,9.00
2019-06-01T14:11:20.524Z,11.00
2019-06-01T14:13:49.923Z,9.50
2019-06-01T14:16:19.335Z,9.25
2019-06-01T14:18:49.608Z,10.25
2019-06-01T14:21:18.897Z,9.50
2019-06-01T14:23:48.217Z,8.00
2019-06-01T14:26:17.295Z,9.25
2019-06-01T14:28:46.495Z,9.75
2019-06-01T14:31:15.679Z,9.75
2019-06-01T14:33:44.711Z,8.75
2019-06-01T14:36:13.928Z,10.00
2019-06-01T14:38:46.968Z,11.75
2019-06-01T14:41:14.119Z,10.75
2019-06-01T14:43:43.336Z,10.75
2019-06-01T14:46:12.514Z,9.75
2019-06-01T14:48:41.682Z,9.50
2019-06-01T14:51:10.807Z,8.25
2019-06-01T14:53:40.010Z,9.50
2019-06-01T14:56:09.241Z,7.50
2019-06-01T14:58:38.384Z,9.50
2019-06-01T15:01:07.502Z,9.75
2019-06-01T15:03:36.704Z,7.25
2019-06-01T15:06:05.891Z,7.00
2019-06-01T15:08:35.068Z,9.75
2019-06-01T15:11:04.298Z,9.00
2019-06-01T15:13:33.468Z,8.25
2019-06-01T15:16:02.600Z,8.00
2019-06-01T15:18:31.725Z,10.00
2019-06-01T15:21:02.136Z,9.25
2019-06-01T15:23:31.542Z,8.25
2019-06-01T15:26:00.725Z,10.00
2019-06-01T15:28:29.927Z,9.50
2019-06-01T15:30:59.328Z,10.00
2019-06-01T15:33:28.431Z,10.00
2019-06-01T15:35:57.739Z,9.00
2019-06-01T15:38:26.923Z,8.50
2019-06-01T15:40:56.273Z,9.00
2019-06-01T15:43:25.475Z,8.00
2019-06-01T15:45:55.357Z,9.00
2019-06-01T15:48:24.512Z,8.00
2019-06-01T15:50:54.462Z,9.25
2019-06-01T15:53:24.599Z,9.25
2019-06-01T15:55:54.319Z,8.00
2019-06-01T15:58:23.555Z,8.50
2019-06-01T16:00:52.843Z,10.75
2019-06-01T16:03:21.932Z,10.00
2019-06-01T16:05:51.022Z,9.00
2019-06-01T16:08:20.142Z,9.75
2019-06-01T16:10:49.321Z,9.25
2019-06-01T16:13:18.500Z,9.00
2019-06-01T16:15:47.639Z,9.75
2019-06-01T16:18:16.812Z,9.00
2019-06-01T16:20:46.774Z,10.25
2019-06-01T16:23:15.949Z,9.25
2019-06-01T16:25:52.324Z,9.00
2019-06-01T16:28:16.051Z,9.00
2019-06-01T16:30:45.265Z,8.00
2019-06-01T16:33:14.460Z,9.25
2019-06-01T16:35:43.667Z,8.75
2019-06-01T16:38:12.866Z,9.00
2019-06-01T16:40:42.052Z,9.00
2019-06-01T16:43:11.275Z,11.25
2019-06-01T16:45:40.471Z,9.00
2019-06-01T16:48:12.629Z,10.75
2019-06-01T16:50:41.832Z,7.50
2019-06-01T16:53:11.037Z,9.25
2019-06-01T16:55:40.213Z,9.00
2019-06-01T16:58:09.421Z,10.25
2019-06-01T17:00:40.061Z,9.75
2019-06-01T17:03:11.292Z,8.00
2019-06-01T17:05:40.173Z,10.50
2019-06-01T17:08:09.345Z,9.00
2019-06-01T17:10:38.565Z,9.00
2019-06-01T17:13:08.983Z,8.00
2019-06-01T17:15:38.309Z,8.00
2019-06-01T17:18:10.330Z,8.00
2019-06-01T17:20:47.395Z,7.50
2019-06-01T17:23:27.594Z,8.75
2019-06-01T17:25:47.510Z,8.00
2019-06-01T17:28:16.703Z,9.00
2019-06-01T17:30:45.883Z,9.50
2019-06-01T17:33:15.068Z,10.50
2019-06-01T17:35:44.273Z,7.00
2019-06-01T17:38:13.499Z,9.25
2019-06-01T17:40:43.442Z,7.25
2019-06-01T17:43:13.387Z,6.75
2019-06-01T17:45:42.663Z,7.50
2019-06-01T17:48:25.217Z,9.75
2019-06-01T17:50:42.874Z,7.75
2019-06-01T17:53:13.008Z,10.50
2019-06-01T17:55:42.530Z,9.75
2019-06-01T17:58:12.523Z,8.00
2019-06-01T18:00:42.353Z,7.25
2019-06-01T18:03:12.067Z,7.75
2019-06-01T18:05:41.586Z,8.00
2019-06-01T18:08:10.723Z,8.00
2019-06-01T18:10:53.258Z,8.00
2019-06-01T18:13:12.904Z,7.50
2019-06-01T18:15:42.277Z,8.00
2019-06-01T18:18:12.777Z,8.50
2019-06-01T18:20:42.239Z,7.00
2019-06-01T18:23:12.044Z,7.00
2019-06-01T18:25:42.326Z,8.00
2019-06-01T18:28:16.113Z,10.50
2019-06-01T18:30:42.449Z,8.75
2019-06-01T18:33:11.654Z,10.50
2019-06-01T18:35:41.537Z,10.75
2019-06-01T18:38:12.798Z,10.25
2019-06-01T18:40:41.662Z,10.50
2019-06-01T18:43:14.241Z,10.00
2019-06-01T18:45:44.037Z,9.25
2019-06-01T18:48:14.447Z,10.25
2019-06-01T18:50:43.885Z,10.75
2019-06-01T18:53:14.190Z,9.25
2019-06-01T18:55:43.531Z,11.00
2019-06-01T18:58:12.776Z,12.75
2019-06-01T19:00:42.407Z,9.00
2019-06-01T19:03:12.262Z,11.00
2019-06-01T19:05:42.690Z,10.00
2019-06-01T19:08:11.982Z,11.00
2019-06-01T19:10:41.180Z,13.25
2019-06-01T19:13:10.276Z,14.00
2019-06-01T19:15:39.492Z,12.50
2019-06-01T19:18:08.698Z,12.75
2019-06-01T19:20:37.803Z,11.00
2019-06-01T19:23:06.911Z,12.25
2019-06-01T19:25:36.108Z,11.25
2019-06-01T19:28:06.700Z,14.00
2019-06-01T19:30:38.286Z,13.00
2019-06-01T19:33:11.122Z,13.00
2019-06-01T19:35:39.668Z,13.25
2019-06-01T19:38:09.161Z,17.00
2019-06-01T19:40:39.739Z,13.00
2019-06-01T19:43:09.649Z,12.50
2019-06-01T19:45:39.143Z,13.25
2019-06-01T19:48:10.035Z,14.50
2019-06-01T19:50:39.808Z,14.25
2019-06-01T19:53:09.038Z,14.75
2019-06-01T19:55:38.434Z,14.50
2019-06-01T19:58:07.700Z,18.00
2019-06-01T20:00:36.903Z,19.00
2019-06-01T20:03:06.742Z,18.00
2019-06-01T20:05:35.944Z,16.00
2019-06-01T20:08:05.394Z,16.75
2019-06-01T20:10:34.584Z,18.50
2019-06-01T20:13:03.826Z,18.25
2019-06-01T20:15:33.010Z,18.75
2019-06-01T20:18:02.158Z,17.75
2019-06-01T20:20:31.276Z,18.25
2019-06-01T20:23:01.343Z,19.00
2019-06-01T20:25:30.580Z,18.50
2019-06-01T20:27:59.667Z,18.00
2019-06-01T20:30:28.843Z,19.75
2019-06-01T20:32:57.960Z,20.75
2019-06-01T20:35:27.110Z,19.00
2019-06-01T20:37:56.308Z,18.50
2019-06-01T20:40:25.515Z,21.00
2019-06-01T20:42:54.610Z,21.50
2019-06-01T20:45:23.821Z,22.75
2019-06-01T20:47:52.942Z,19.50
2019-06-01T20:50:22.869Z,21.50
2019-06-01T20:52:52.079Z,19.25
2019-06-01T20:55:21.312Z,22.00
2019-06-01T20:57:50.385Z,21.50
2019-06-01T21:00:20.254Z,25.00
2019-06-01T21:02:49.428Z,25.00
2019-06-01T21:05:19.865Z,24.75
2019-06-01T21:07:51.465Z,23.00
2019-06-01T21:10:22.171Z,24.00
2019-06-01T21:12:51.425Z,23.75
2019-06-01T21:15:23.392Z,25.00
2019-06-01T21:17:52.674Z,23.25
2019-06-01T21:20:28.503Z,21.25
2019-06-01T21:22:53.599Z,25.50
2019-06-01T21:25:22.926Z,27.25
2019-06-01T21:27:52.170Z,26.75
2019-06-01T21:30:23.002Z,24.25
2019-06-01T21:32:52.266Z,27.50
2019-06-01T21:35:21.460Z,29.50
2019-06-01T21:37:50.649Z,27.25
2019-06-01T21:40:21.555Z,22.50
2019-06-01T21:43:01.127Z,26.00
2019-06-01T21:45:21.796Z,25.50
2019-06-01T21:47:51.044Z,25.75
2019-06-01T21:50:20.254Z,23.25
2019-06-01T21:52:49.425Z,27.25
2019-06-01T21:55:18.605Z,26.50
2019-06-01T21:57:47.724Z,26.00
2019-06-01T22:00:26.718Z,24.00
2019-06-01T22:02:55.926Z,21.25
2019-06-01T22:05:25.425Z,23.50
2019-06-01T22:07:54.562Z,20.75
2019-06-01T22:10:23.597Z,23.50
2019-06-01T22:12:52.797Z,20.50
2019-06-01T22:15:21.891Z,21.00
2019-06-01T22:17:51.073Z,20.75
2019-06-01T22:20:20.262Z,18.25
2019-06-01T22:22:49.368Z,18.25
2019-06-01T22:25:20.414Z,17.00
2019-06-01T22:27:49.416Z,15.25
2019-06-01T22:30:18.604Z,18.50
2019-06-01T22:32:47.737Z,17.00
2019-06-01T22:35:16.914Z,17.00
2019-06-01T22:37:46.009Z,15.25
2019-06-01T22:40:15.604Z,15.75
2019-06-01T22:42:44.787Z,15.75
2019-06-01T22:45:14.375Z,17.00
2019-06-01T22:47:43.565Z,14.00
2019-06-01T22:50:13.258Z,13.25
2019-06-01T22:52:42.445Z,14.00
2019-06-01T22:55:11.643Z,12.50
2019-06-01T22:57:43.088Z,13.75
2019-06-01T23:00:11.762Z,11.00
2019-06-01T23:02:40.818Z,11.25
2019-06-01T23:05:10.396Z,11.00
2019-06-01T23:07:39.523Z,10.25
2019-06-01T23:10:08.913Z,11.00
2019-06-01T23:12:37.955Z,10.00
2019-06-01T23:15:07.608Z,10.50
2019-06-01T23:17:36.778Z,10.50
2019-06-01T23:20:06.554Z,10.00
2019-06-01T23:22:35.870Z,11.00
2019-06-01T23:25:05.967Z,11.00
2019-06-01T23:27:35.073Z,10.25
2019-06-01T23:30:04.824Z,11.75
2019-06-01T23:32:33.994Z,10.00
2019-06-01T23:35:03.191Z,11.25
2019-06-01T23:37:32.917Z,10.25
2019-06-01T23:40:02.167Z,10.25
2019-06-01T23:42:31.385Z,11.75
2019-06-01T23:45:00.437Z,11.50
2019-06-01T23:47:29.630Z,11.50
2019-06-01T23:49:58.711Z,11.50
2019-06-01T23:52:27.993Z,12.00
2019-06-01T23:54:57.008Z,13.00
2019-06-01T23:57:26.184Z,11.00
2019-06-01T23:59:55.254Z,12.50
